APG's ATC Tracking Thread (Closed)

I can’t edit my old thread, so…

Airport: Norman Y Mineta San Jose International Airport (KSJC)
Services: TWR, GND
METAR KSJC 021853Z 30007KT 10SM FEW085 25/13 A2998 RMK AO2 SLP152 T02500128
Runway 30R for departures, runway 30L for arrivals, pattern work accepted (standard)

I’m open at KSJC, come on down and fly some patterns!

Now closed…

Would you like feedback?
If so, here or in a PM?

Yes please! I’ll take it in a PM.

Great. PM on the way :)

This topic was automatically closed 90 days after the last reply. New replies are no longer allowed.